createdAt,value
2018-06-04T00:01:54.744Z,11.93
2018-06-04T00:05:05.387Z,9.83
2018-06-04T00:08:16.166Z,12.03
2018-06-04T00:11:26.577Z,12.33
2018-06-04T00:14:36.552Z,10.80
2018-06-04T00:17:46.631Z,11.30
2018-06-04T00:20:56.864Z,10.80
2018-06-04T00:24:07.338Z,11.10
2018-06-04T00:27:18.462Z,10.78
2018-06-04T00:30:28.813Z,13.28
2018-06-04T00:33:39.122Z,12.05
2018-06-04T00:36:49.235Z,10.98
2018-06-04T00:39:59.743Z,15.75
2018-06-04T00:43:10.408Z,11.68
2018-06-04T00:46:21.234Z,9.98
2018-06-04T00:49:31.407Z,12.45
2018-06-04T00:52:41.827Z,9.90
2018-06-04T00:56:03.241Z,10.28
2018-06-04T00:59:13.539Z,10.20
2018-06-04T01:02:23.381Z,10.20
2018-06-04T01:05:33.648Z,9.18
2018-06-04T01:08:44.427Z,10.90
2018-06-04T01:11:54.823Z,12.30
2018-06-04T01:15:05.486Z,11.75
2018-06-04T01:18:15.436Z,11.15
2018-06-04T01:21:25.695Z,9.65
2018-06-04T01:24:35.467Z,12.18
2018-06-04T01:27:45.603Z,11.22
2018-06-04T01:30:55.998Z,9.55
2018-06-04T01:34:06.507Z,11.15
2018-06-04T01:37:16.694Z,15.95
2018-06-04T01:40:27.102Z,8.60
2018-06-04T01:43:37.501Z,12.60
2018-06-04T01:46:47.650Z,11.90
2018-06-04T01:49:58.247Z,13.05
2018-06-04T01:53:08.970Z,11.35
2018-06-04T01:56:19.578Z,10.30
2018-06-04T01:59:30.419Z,10.38
2018-06-04T02:02:40.959Z,11.75
2018-06-04T02:05:50.857Z,12.98
2018-06-04T02:09:00.843Z,10.65
2018-06-04T02:12:11.308Z,11.05
2018-06-04T02:15:21.882Z,11.30
2018-06-04T02:18:32.398Z,11.95
2018-06-04T02:21:42.560Z,12.88
2018-06-04T02:24:52.934Z,11.55
2018-06-04T02:28:03.263Z,15.43
2018-06-04T02:31:13.155Z,11.20
2018-06-04T02:34:23.887Z,10.15
2018-06-04T02:37:33.715Z,13.32
2018-06-04T02:40:44.073Z,11.25
2018-06-04T02:43:54.694Z,11.65
2018-06-04T02:47:05.895Z,13.38
2018-06-04T02:50:16.597Z,11.48
2018-06-04T02:53:26.654Z,12.78
2018-06-04T02:56:36.563Z,11.73
2018-06-04T02:59:46.533Z,13.22
2018-06-04T03:02:56.779Z,14.58
2018-06-04T03:06:07.871Z,11.18
2018-06-04T03:09:18.398Z,11.50
2018-06-04T03:12:28.379Z,12.53
2018-06-04T03:15:38.833Z,11.57
2018-06-04T03:18:48.622Z,10.15
2018-06-04T03:21:58.562Z,12.07
2018-06-04T03:25:09.331Z,11.60
2018-06-04T03:28:19.798Z,11.50
2018-06-04T03:31:29.934Z,12.07
2018-06-04T03:34:40.901Z,10.32
2018-06-04T03:37:50.864Z,13.13
2018-06-04T03:41:02.275Z,12.37
2018-06-04T03:44:13.892Z,15.10
2018-06-04T03:47:26.305Z,10.63
2018-06-04T03:50:39.217Z,12.50
2018-06-04T03:53:50.025Z,11.97
2018-06-04T03:57:01.694Z,12.65
2018-06-04T04:00:13.083Z,11.55
2018-06-04T04:03:24.821Z,13.60
2018-06-04T04:06:36.770Z,13.10
2018-06-04T04:09:48.389Z,14.68
2018-06-04T04:13:00.462Z,15.05
2018-06-04T04:16:13.016Z,10.85
2018-06-04T04:19:23.976Z,14.18
2018-06-04T04:22:35.663Z,13.40
2018-06-04T04:25:46.601Z,13.43
2018-06-04T04:28:57.915Z,14.70
2018-06-04T04:32:08.972Z,11.55
2018-06-04T04:35:21.446Z,11.10
2018-06-04T04:38:31.951Z,16.87
2018-06-04T04:41:42.114Z,15.75
2018-06-04T04:44:52.442Z,15.88
2018-06-04T04:48:02.683Z,12.47
2018-06-04T04:51:14.022Z,12.58
2018-06-04T04:54:24.322Z,12.47
2018-06-04T04:57:35.395Z,12.82
2018-06-04T05:00:45.832Z,14.15
2018-06-04T05:03:55.965Z,13.90
2018-06-04T05:07:05.999Z,11.48
2018-06-04T05:10:17.438Z,10.15
2018-06-04T05:13:27.459Z,12.90
2018-06-04T05:16:37.674Z,11.45
2018-06-04T05:19:47.726Z,11.30
2018-06-04T05:22:59.122Z,14.58
2018-06-04T05:26:09.734Z,16.37
2018-06-04T05:29:20.046Z,16.07
2018-06-04T05:32:30.334Z,13.68
2018-06-04T05:35:41.171Z,13.40
2018-06-04T05:38:51.806Z,12.65
2018-06-04T05:42:02.090Z,10.98
2018-06-04T05:45:12.462Z,12.53
2018-06-04T05:48:22.654Z,13.15
2018-06-04T05:51:32.739Z,13.15
2018-06-04T05:54:42.806Z,11.40
2018-06-04T05:57:53.405Z,14.65
2018-06-04T06:01:03.337Z,13.15
2018-06-04T06:04:13.327Z,11.35
2018-06-04T06:07:23.204Z,13.58
2018-06-04T06:10:33.234Z,13.40
2018-06-04T06:13:43.894Z,15.28
2018-06-04T06:16:54.514Z,13.93
2018-06-04T06:20:06.015Z,13.22
2018-06-04T06:23:16.098Z,13.32
2018-06-04T06:26:26.383Z,14.83
2018-06-04T06:29:36.700Z,14.05
2018-06-04T06:32:46.744Z,15.05
2018-06-04T06:35:57.591Z,17.05
2018-06-04T06:39:09.470Z,14.93
2018-06-04T06:42:20.103Z,14.28
2018-06-04T06:45:30.046Z,12.75
2018-06-04T06:48:40.835Z,14.43
2018-06-04T06:51:50.888Z,13.62
2018-06-04T06:55:01.298Z,13.30
2018-06-04T06:58:11.330Z,15.03
2018-06-04T07:01:21.706Z,16.05
2018-06-04T07:04:32.092Z,15.18
2018-06-04T07:07:41.942Z,11.90
2018-06-04T07:10:52.438Z,14.63
2018-06-04T07:14:02.809Z,12.98
2018-06-04T07:17:12.741Z,13.30
2018-06-04T07:20:23.178Z,13.22
2018-06-04T07:23:33.268Z,14.18
2018-06-04T07:26:43.258Z,15.05
2018-06-04T07:29:53.974Z,17.17
2018-06-04T07:33:04.687Z,13.00
2018-06-04T07:36:15.800Z,12.80
2018-06-04T07:39:25.691Z,14.05
2018-06-04T07:42:35.918Z,11.33
2018-06-04T07:45:46.042Z,12.15
2018-06-04T07:48:56.480Z,15.08
2018-06-04T07:52:06.590Z,14.43
2018-06-04T07:55:16.459Z,12.07
2018-06-04T07:58:27.859Z,13.90
2018-06-04T08:01:38.215Z,8.80
2018-06-04T08:04:47.894Z,13.13
2018-06-04T08:07:58.829Z,13.23
2018-06-04T08:11:09.091Z,12.03
2018-06-04T08:14:19.594Z,12.10
2018-06-04T08:17:29.670Z,12.90
2018-06-04T08:20:40.156Z,14.00
2018-06-04T08:23:50.561Z,12.97
2018-06-04T08:27:00.782Z,11.93
2018-06-04T08:30:11.054Z,11.70
2018-06-04T08:33:20.720Z,11.23
2018-06-04T08:36:30.684Z,11.70
2018-06-04T08:39:40.738Z,9.27
2018-06-04T08:42:51.014Z,10.30
2018-06-04T08:46:01.059Z,9.60
2018-06-04T08:49:10.940Z,11.37
2018-06-04T08:52:20.702Z,11.83
2018-06-04T08:55:30.792Z,6.90
2018-06-04T08:58:41.060Z,11.93
2018-06-04T09:01:50.873Z,12.07
2018-06-04T09:05:01.147Z,10.00
2018-06-04T09:08:11.403Z,6.93
2018-06-04T09:11:21.268Z,8.87
2018-06-04T09:14:31.444Z,10.63
2018-06-04T09:17:41.974Z,9.70
2018-06-04T09:20:51.707Z,10.17
2018-06-04T09:24:01.927Z,9.67
2018-06-04T09:27:12.167Z,11.17
2018-06-04T09:30:22.338Z,9.77
2018-06-04T09:33:32.398Z,11.13
2018-06-04T09:36:43.514Z,10.67
2018-06-04T09:39:53.765Z,14.03
2018-06-04T09:43:04.166Z,10.30
2018-06-04T09:46:14.383Z,10.63
2018-06-04T09:49:24.164Z,9.80
2018-06-04T09:52:34.323Z,9.47
2018-06-04T09:55:43.929Z,9.67
2018-06-04T09:58:54.062Z,14.77
2018-06-04T10:02:03.982Z,8.30
2018-06-04T10:05:13.522Z,9.27
2018-06-04T10:08:23.683Z,9.47
2018-06-04T10:11:33.625Z,8.30
2018-06-04T10:14:43.593Z,9.10
2018-06-04T10:17:53.830Z,7.20
2018-06-04T10:21:04.120Z,7.90
2018-06-04T10:24:13.762Z,8.47
2018-06-04T10:27:23.967Z,8.20
2018-06-04T10:30:34.329Z,8.47
2018-06-04T10:33:44.169Z,7.73
2018-06-04T10:36:54.236Z,7.70
2018-06-04T10:40:05.137Z,7.93
2018-06-04T10:43:14.837Z,7.70
2018-06-04T10:46:25.166Z,8.30
2018-06-04T10:49:35.240Z,7.93
2018-06-04T10:52:45.597Z,6.93
2018-06-04T10:55:55.360Z,7.57
2018-06-04T10:59:05.325Z,7.10
2018-06-04T11:02:15.189Z,8.27
2018-06-04T11:05:25.133Z,8.03
2018-06-04T11:08:34.863Z,6.77
2018-06-04T11:11:44.846Z,7.37
2018-06-04T11:14:55.322Z,10.70
2018-06-04T11:18:05.507Z,8.10
2018-06-04T11:21:15.594Z,7.27
2018-06-04T11:24:25.887Z,6.83
2018-06-04T11:27:36.058Z,7.80
2018-06-04T11:30:46.453Z,7.93
2018-06-04T11:33:56.225Z,7.20
2018-06-04T11:37:06.404Z,6.03
2018-06-04T11:40:16.119Z,7.93
2018-06-04T11:43:26.153Z,6.17
2018-06-04T11:46:36.497Z,8.90
2018-06-04T11:49:46.681Z,8.20
2018-06-04T11:52:56.567Z,7.33
2018-06-04T11:56:06.254Z,7.33
2018-06-04T11:59:16.494Z,7.27
2018-06-04T12:02:26.582Z,9.27
2018-06-04T12:05:36.865Z,8.00
2018-06-04T12:08:47.419Z,7.23
2018-06-04T12:11:57.387Z,6.70
2018-06-04T12:15:08.338Z,7.03
2018-06-04T12:18:18.838Z,6.37
2018-06-04T12:21:28.713Z,6.47
2018-06-04T12:24:38.821Z,8.57
2018-06-04T12:27:48.801Z,7.10
2018-06-04T12:30:58.486Z,10.50
2018-06-04T12:34:08.847Z,7.47
2018-06-04T12:37:18.834Z,7.30
2018-06-04T12:40:29.093Z,7.93
2018-06-04T12:43:39.767Z,8.80
2018-06-04T12:46:50.121Z,6.93
2018-06-04T12:50:00.646Z,8.17
2018-06-04T12:53:11.074Z,8.50
2018-06-04T12:56:21.182Z,7.40
2018-06-04T12:59:31.306Z,9.10
2018-06-04T13:02:41.209Z,7.83
2018-06-04T13:05:51.318Z,10.07
2018-06-04T13:09:01.562Z,6.23
2018-06-04T13:12:11.626Z,7.60
2018-06-04T13:15:21.473Z,7.20
2018-06-04T13:18:31.451Z,7.23
2018-06-04T13:21:41.757Z,10.47
2018-06-04T13:24:51.686Z,9.33
2018-06-04T13:28:01.515Z,7.37
2018-06-04T13:31:11.631Z,7.43
2018-06-04T13:34:21.719Z,5.70
2018-06-04T13:37:31.815Z,8.70
2018-06-04T13:40:41.962Z,5.83
2018-06-04T13:43:51.831Z,8.23
2018-06-04T13:47:01.846Z,6.83
2018-06-04T13:50:12.433Z,8.83
2018-06-04T13:53:22.925Z,8.60
2018-06-04T13:56:32.633Z,9.13
2018-06-04T13:59:42.482Z,7.37
2018-06-04T14:02:52.775Z,9.33
2018-06-04T14:06:02.328Z,9.80
2018-06-04T14:09:12.257Z,7.27
2018-06-04T14:12:22.247Z,7.50
2018-06-04T14:15:32.830Z,8.50
2018-06-04T14:18:43.267Z,9.47
2018-06-04T14:21:53.310Z,10.27
2018-06-04T14:25:02.932Z,9.20
2018-06-04T14:28:13.165Z,10.23
2018-06-04T14:31:23.133Z,9.60
2018-06-04T14:34:33.199Z,9.83
2018-06-04T14:37:43.071Z,8.53
2018-06-04T14:40:52.687Z,10.40
2018-06-04T14:44:03.025Z,10.67
2018-06-04T14:47:13.071Z,9.30
2018-06-04T14:50:23.441Z,8.90
2018-06-04T14:53:33.469Z,8.07
2018-06-04T14:56:44.304Z,9.93
2018-06-04T14:59:53.975Z,8.47
2018-06-04T15:03:03.729Z,9.00
2018-06-04T15:06:13.410Z,10.20
2018-06-04T15:09:24.108Z,10.67
2018-06-04T15:12:34.370Z,10.40
2018-06-04T15:15:45.510Z,10.20
2018-06-04T15:18:55.641Z,8.60
2018-06-04T15:22:05.754Z,12.00
2018-06-04T15:25:15.436Z,8.53
2018-06-04T15:28:25.882Z,10.60
2018-06-04T15:31:35.949Z,10.27
2018-06-04T15:34:45.831Z,9.57
2018-06-04T15:37:56.711Z,10.77
2018-06-04T15:41:07.062Z,8.50
2018-06-04T15:44:18.644Z,8.80
2018-06-04T15:47:29.363Z,8.27
2018-06-04T15:50:39.692Z,8.90
2018-06-04T15:53:50.206Z,7.43
2018-06-04T15:57:00.303Z,8.00
2018-06-04T16:00:10.625Z,8.87
2018-06-04T16:03:20.731Z,7.17
2018-06-04T16:06:31.070Z,7.20
2018-06-04T16:09:40.964Z,8.70
2018-06-04T16:12:51.462Z,7.40
2018-06-04T16:16:01.212Z,6.90
2018-06-04T16:19:10.786Z,7.20
2018-06-04T16:22:21.207Z,8.10
2018-06-04T16:25:31.385Z,8.10
2018-06-04T16:28:41.062Z,8.50
2018-06-04T16:31:50.655Z,10.07
2018-06-04T16:35:01.275Z,8.27
2018-06-04T16:38:11.136Z,12.30
2018-06-04T16:41:21.550Z,11.60
2018-06-04T16:44:31.355Z,8.93
2018-06-04T16:47:41.917Z,10.40
2018-06-04T16:50:51.702Z,9.30
2018-06-04T16:54:01.510Z,9.63
2018-06-04T16:57:11.531Z,8.50
2018-06-04T17:00:21.432Z,8.13
2018-06-04T17:03:31.474Z,8.33
2018-06-04T17:06:41.857Z,8.10
2018-06-04T17:09:52.059Z,9.17
2018-06-04T17:13:01.964Z,9.30
2018-06-04T17:16:12.450Z,9.07
2018-06-04T17:19:22.325Z,8.57
2018-06-04T17:22:32.783Z,10.03
2018-06-04T17:25:43.406Z,9.27
2018-06-04T17:28:53.518Z,9.60
2018-06-04T17:32:03.421Z,8.10
2018-06-04T17:35:13.271Z,8.13
2018-06-04T17:38:23.268Z,10.53
2018-06-04T17:41:33.071Z,8.20
2018-06-04T17:44:42.981Z,7.67
2018-06-04T17:47:53.392Z,9.27
2018-06-04T17:51:03.600Z,9.53
2018-06-04T17:54:13.427Z,10.70
2018-06-04T17:57:23.306Z,9.13
2018-06-04T18:00:33.023Z,11.80
2018-06-04T18:03:43.382Z,7.90
2018-06-04T18:06:53.333Z,7.93
2018-06-04T18:10:05.290Z,8.37
2018-06-04T18:13:15.972Z,7.50
2018-06-04T18:16:25.841Z,8.20
2018-06-04T18:19:35.690Z,8.67
2018-06-04T18:22:45.470Z,10.03
2018-06-04T18:25:55.334Z,10.63
2018-06-04T18:29:05.402Z,12.23
2018-06-04T18:32:15.216Z,9.97
2018-06-04T18:35:25.288Z,9.50
2018-06-04T18:38:35.117Z,9.73
2018-06-04T18:41:45.319Z,11.20
2018-06-04T18:44:55.732Z,8.87
2018-06-04T18:48:05.896Z,10.47
2018-06-04T18:51:16.854Z,10.30
2018-06-04T18:54:27.117Z,10.07
2018-06-04T18:57:38.024Z,11.37
2018-06-04T19:00:48.603Z,10.63
2018-06-04T19:03:59.118Z,13.20
2018-06-04T19:07:08.942Z,13.37
2018-06-04T19:10:19.139Z,9.95
2018-06-04T19:13:29.230Z,10.00
2018-06-04T19:16:39.286Z,11.40
2018-06-04T19:19:50.054Z,11.97
2018-06-04T19:23:00.105Z,13.10
2018-06-04T19:26:09.686Z,12.50
2018-06-04T19:29:20.000Z,11.60
2018-06-04T19:32:30.059Z,12.13
2018-06-04T19:35:40.380Z,12.50
2018-06-04T19:38:51.449Z,12.07
2018-06-04T19:42:02.046Z,12.68
2018-06-04T19:45:12.428Z,11.83
2018-06-04T19:48:22.489Z,11.85
2018-06-04T19:51:32.333Z,11.48
2018-06-04T19:54:42.525Z,13.43
2018-06-04T19:57:53.341Z,10.93
2018-06-04T20:01:03.660Z,13.88
2018-06-04T20:04:13.781Z,13.22
2018-06-04T20:07:24.006Z,13.05
2018-06-04T20:10:35.502Z,10.75
2018-06-04T20:13:45.325Z,11.10
2018-06-04T20:16:55.469Z,11.83
2018-06-04T20:20:07.955Z,12.18
2018-06-04T20:23:18.206Z,12.10
2018-06-04T20:26:29.753Z,11.95
2018-06-04T20:29:40.034Z,13.35
2018-06-04T20:36:25.019Z,11.68
2018-06-04T20:39:35.232Z,12.00
2018-06-04T20:42:45.884Z,10.70
2018-06-04T20:45:55.866Z,10.95
2018-06-04T20:49:05.754Z,14.03
2018-06-04T20:52:16.414Z,12.20
2018-06-04T20:55:26.725Z,13.00
2018-06-04T20:58:38.190Z,13.60
2018-06-04T21:01:48.482Z,13.83
2018-06-04T21:04:58.647Z,14.23
2018-06-04T21:08:09.099Z,10.90
2018-06-04T21:11:18.909Z,12.43
2018-06-04T21:14:28.786Z,14.18
2018-06-04T21:17:39.516Z,11.30
2018-06-04T21:20:49.591Z,14.15
2018-06-04T21:23:59.406Z,12.60
2018-06-04T21:27:09.577Z,11.57
2018-06-04T21:30:20.010Z,14.23
2018-06-04T21:33:29.957Z,13.40
2018-06-04T21:36:40.354Z,16.80
2018-06-04T21:39:50.982Z,14.10
2018-06-04T21:43:01.711Z,11.50
2018-06-04T21:46:12.113Z,14.53
2018-06-04T21:49:22.722Z,14.15
2018-06-04T21:52:33.081Z,15.05
2018-06-04T21:55:42.959Z,14.75
2018-06-04T21:58:53.134Z,16.67
2018-06-04T22:02:04.397Z,17.45
2018-06-04T22:05:14.361Z,15.38
2018-06-04T22:08:24.925Z,15.05
2018-06-04T22:11:35.685Z,15.25
2018-06-04T22:14:45.585Z,16.67
2018-06-04T22:17:56.330Z,13.05
2018-06-04T22:21:07.875Z,15.90
2018-06-04T22:24:18.037Z,11.90
2018-06-04T22:27:27.944Z,16.12
2018-06-04T22:30:37.953Z,15.15
2018-06-04T22:33:48.159Z,14.00
2018-06-04T22:36:58.337Z,14.50
2018-06-04T22:40:09.433Z,14.35
2018-06-04T22:43:20.205Z,14.90
2018-06-04T22:46:30.590Z,16.95
2018-06-04T22:49:40.546Z,14.55
2018-06-04T22:52:51.145Z,14.83
2018-06-04T22:56:01.114Z,15.48
2018-06-04T22:59:11.129Z,16.62
2018-06-04T23:02:21.192Z,19.42
2018-06-04T23:05:31.495Z,14.40
2018-06-04T23:08:41.737Z,14.80
2018-06-04T23:11:51.725Z,16.32
2018-06-04T23:15:01.877Z,21.60
2018-06-04T23:18:12.242Z,17.12
2018-06-04T23:21:22.335Z,16.32
2018-06-04T23:24:32.947Z,15.63
2018-06-04T23:27:43.763Z,20.65
2018-06-04T23:30:53.798Z,17.05
2018-06-04T23:34:04.281Z,17.35
2018-06-04T23:37:14.430Z,13.43
2018-06-04T23:40:24.714Z,18.17
2018-06-04T23:43:34.638Z,21.80
2018-06-04T23:46:44.898Z,17.40
2018-06-04T23:49:55.177Z,17.67
2018-06-04T23:53:05.425Z,16.82
2018-06-04T23:56:15.594Z,17.00
2018-06-04T23:59:26.341Z,18.67
